createdAt,value
2018-03-19T00:00:58.496Z,-1.11
2018-03-19T00:04:01.793Z,-1.12
2018-03-19T00:07:05.106Z,-1.15
2018-03-19T00:10:08.406Z,-1.16
2018-03-19T00:13:11.722Z,-1.16
2018-03-19T00:16:15.038Z,-1.12
2018-03-19T00:19:19.123Z,-1.13
2018-03-19T00:22:22.454Z,-1.19
2018-03-19T00:25:26.529Z,-1.27
2018-03-19T00:28:29.863Z,-1.32
2018-03-19T00:31:33.935Z,-1.32
2018-03-19T00:34:37.258Z,-1.33
2018-03-19T00:37:40.559Z,-1.35
2018-03-19T00:40:43.898Z,-1.42
2018-03-19T00:43:47.204Z,-1.44
2018-03-19T00:46:50.515Z,-1.42
2018-03-19T00:49:53.818Z,-1.41
2018-03-19T00:52:57.139Z,-1.45
2018-03-19T00:56:00.454Z,-1.46
2018-03-19T00:59:04.518Z,-1.51
2018-03-19T01:02:07.849Z,-1.50
2018-03-19T01:05:11.147Z,-1.54
2018-03-19T01:08:14.470Z,-1.51
2018-03-19T01:11:17.790Z,-1.54
2018-03-19T01:14:21.106Z,-1.51
2018-03-19T01:17:24.427Z,-1.53
2018-03-19T01:20:27.731Z,-1.59
2018-03-19T01:23:31.049Z,-1.62
2018-03-19T01:26:35.139Z,-1.62
2018-03-19T01:29:38.447Z,-1.63
2018-03-19T01:32:42.531Z,-1.61
2018-03-19T01:35:45.839Z,-1.61
2018-03-19T01:38:49.158Z,-1.60
2018-03-19T01:41:53.251Z,-1.55
2018-03-19T01:44:56.574Z,-1.52
2018-03-19T01:48:00.639Z,-1.57
2018-03-19T01:51:03.958Z,-1.60
2018-03-19T01:54:07.274Z,-1.64
2018-03-19T01:57:11.359Z,-1.64
2018-03-19T02:00:14.674Z,-1.71
2018-03-19T02:03:18.746Z,-1.68
2018-03-19T02:06:22.070Z,-1.73
2018-03-19T02:09:25.383Z,-1.79
2018-03-19T02:12:29.478Z,-1.75
2018-03-19T02:15:32.799Z,-1.75
2018-03-19T02:18:36.886Z,-1.78
2018-03-19T02:21:40.190Z,-1.79
2018-03-19T02:24:43.512Z,-1.77
2018-03-19T02:27:47.599Z,-1.80
2018-03-19T02:30:50.903Z,-1.89
2018-03-19T02:33:55.003Z,-1.96
2018-03-19T02:36:58.305Z,-2.01
2018-03-19T02:40:01.634Z,-2.02
2018-03-19T02:43:04.956Z,-2.04
2018-03-19T02:46:08.291Z,-2.03
2018-03-19T02:49:11.590Z,-2.02
2018-03-19T02:52:14.920Z,-2.03
2018-03-19T02:55:19.010Z,-2.07
2018-03-19T02:58:22.341Z,-2.09
2018-03-19T03:01:25.660Z,-2.15
2018-03-19T03:04:28.979Z,-2.19
2018-03-19T03:07:32.290Z,-2.22
2018-03-19T03:10:35.628Z,-2.27
2018-03-19T03:13:38.930Z,-2.30
2018-03-19T03:16:42.258Z,-2.31
2018-03-19T03:19:45.563Z,-2.33
2018-03-19T03:22:48.892Z,-2.35
2018-03-19T03:25:52.963Z,-2.38
2018-03-19T03:28:56.287Z,-2.46
2018-03-19T03:31:59.585Z,-2.51
2018-03-19T03:35:02.902Z,-2.56
2018-03-19T03:38:06.977Z,-2.60
2018-03-19T03:41:10.295Z,-2.62
2018-03-19T03:44:13.609Z,-2.66
2018-03-19T03:47:17.695Z,-2.72
2018-03-19T03:50:21.015Z,-2.79
2018-03-19T03:53:25.079Z,-2.87
2018-03-19T03:56:28.389Z,-2.93
2018-03-19T03:59:31.696Z,-2.99
2018-03-19T04:02:35.030Z,-3.07
2018-03-19T04:05:39.106Z,-3.12
2018-03-19T04:08:42.426Z,-3.17
2018-03-19T04:11:45.747Z,-3.24
2018-03-19T04:14:49.067Z,-3.32
2018-03-19T04:17:52.398Z,-3.38
2018-03-19T04:20:55.727Z,-3.42
2018-03-19T04:23:59.827Z,-3.44
2018-03-19T04:27:03.135Z,-3.48
2018-03-19T04:30:07.233Z,-3.52
2018-03-19T04:33:10.541Z,-3.54
2018-03-19T04:43:23.431Z,-3.35
2018-03-19T04:46:37.866Z,-3.26
2018-03-19T04:49:41.495Z,-3.27
2018-03-19T04:52:45.549Z,-3.32
2018-03-19T04:55:49.794Z,-3.37
2018-03-19T04:58:54.956Z,-3.42
2018-03-19T05:02:00.847Z,-3.45
2018-03-19T05:05:04.319Z,-3.49
2018-03-19T05:08:08.645Z,-3.54
2018-03-19T05:11:12.123Z,-3.55
2018-03-19T05:14:17.112Z,-3.56
2018-03-19T05:17:20.650Z,-3.58
2018-03-19T05:20:24.982Z,-3.63
2018-03-19T05:23:28.923Z,-3.71
2018-03-19T05:26:32.344Z,-3.71
2018-03-19T05:29:36.176Z,-3.76
2018-03-19T05:32:40.594Z,-3.83
2018-03-19T05:35:46.124Z,-3.89
2018-03-19T05:38:49.562Z,-3.92
2018-03-19T05:41:53.773Z,-3.96
2018-03-19T05:45:00.749Z,-4.00
2018-03-19T05:48:06.450Z,-4.02
2018-03-19T05:51:10.722Z,-4.03
2018-03-19T05:54:14.222Z,-4.05
2018-03-19T05:57:17.755Z,-4.02
2018-03-19T06:00:21.584Z,-3.93
2018-03-19T06:03:25.957Z,-3.87
2018-03-19T06:06:31.068Z,-3.85
2018-03-19T06:09:35.507Z,-3.84
2018-03-19T06:12:40.643Z,-3.84
2018-03-19T06:15:43.956Z,-3.80
2018-03-19T06:18:48.039Z,-3.77
2018-03-19T06:21:51.343Z,-3.74
2018-03-19T06:24:54.671Z,-3.72
2018-03-19T06:27:58.748Z,-3.69
2018-03-19T06:31:02.097Z,-3.62
2018-03-19T06:34:05.414Z,-3.51
2018-03-19T06:37:08.738Z,-3.27
2018-03-19T06:40:12.074Z,-3.08
2018-03-19T06:43:16.146Z,-2.89
2018-03-19T06:46:19.474Z,-2.76
2018-03-19T06:49:23.550Z,-2.66
2018-03-19T06:52:26.882Z,-2.51
2018-03-19T06:55:31.010Z,-2.36
2018-03-19T06:58:34.320Z,-2.23
2018-03-19T07:01:37.631Z,-2.07
2018-03-19T07:04:40.962Z,-1.97
2018-03-19T07:07:44.295Z,-1.89
2018-03-19T07:10:48.372Z,-1.79
2018-03-19T07:13:51.703Z,-1.65
2018-03-19T07:16:55.794Z,-1.58
2018-03-19T07:19:59.136Z,-1.53
2018-03-19T07:23:02.981Z,-1.44
2018-03-19T07:26:06.315Z,-1.36
2018-03-19T07:29:09.619Z,-1.26
2018-03-19T07:32:13.707Z,-1.09
2018-03-19T07:35:17.012Z,-0.97
2018-03-19T07:38:20.339Z,-0.92
2018-03-19T07:41:24.410Z,-0.82
2018-03-19T07:44:27.754Z,-0.68
2018-03-19T07:47:33.076Z,-0.53
2018-03-19T07:50:36.535Z,-0.39
2018-03-19T07:53:40.578Z,-0.31
2018-03-19T07:56:43.898Z,-0.19
2018-03-19T07:59:48.003Z,-0.08
2018-03-19T08:02:52.063Z,0.01
2018-03-19T08:05:55.377Z,0.11
2018-03-19T08:08:58.674Z,0.23
2018-03-19T08:12:01.987Z,0.37
2018-03-19T08:15:05.288Z,0.42
2018-03-19T08:18:08.602Z,0.52
2018-03-19T08:21:12.662Z,0.68
2018-03-19T08:24:15.975Z,0.73
2018-03-19T08:27:19.274Z,0.73
2018-03-19T08:30:22.586Z,0.74
2018-03-19T08:33:25.883Z,0.79
2018-03-19T08:36:29.199Z,0.94
2018-03-19T08:39:33.254Z,1.06
2018-03-19T08:42:36.568Z,1.14
2018-03-19T08:45:39.887Z,1.27
2018-03-19T08:48:43.203Z,1.28
2018-03-19T08:51:47.266Z,1.31
2018-03-19T08:54:50.575Z,1.41
2018-03-19T08:57:53.891Z,1.48
2018-03-19T09:00:57.186Z,1.58
2018-03-19T09:04:11.496Z,1.67
2018-03-19T09:07:15.863Z,1.81
2018-03-19T09:10:22.751Z,1.83
2018-03-19T09:13:27.677Z,1.95
2018-03-19T09:16:32.221Z,2.01
2018-03-19T09:19:39.503Z,2.07
2018-03-19T09:22:43.565Z,2.08
2018-03-19T09:25:51.164Z,2.09
2018-03-19T09:28:55.322Z,2.20
2018-03-19T09:32:00.212Z,2.22
2018-03-19T09:35:05.471Z,2.16
2018-03-19T09:38:14.088Z,2.16
2018-03-19T09:41:19.253Z,2.28
2018-03-19T09:44:24.396Z,2.35
2018-03-19T09:47:30.805Z,2.25
2018-03-19T09:50:35.278Z,2.21
2018-03-19T09:53:38.800Z,2.26
2018-03-19T09:56:42.358Z,2.30
2018-03-19T09:59:47.873Z,2.37
2018-03-19T10:02:54.408Z,2.34
2018-03-19T10:05:59.241Z,2.38
2018-03-19T10:09:06.119Z,2.44
2018-03-19T10:12:09.511Z,2.56
2018-03-19T10:15:13.363Z,2.56
2018-03-19T10:18:17.976Z,2.48
2018-03-19T10:21:21.360Z,2.58
2018-03-19T10:24:25.500Z,2.55
2018-03-19T10:27:28.854Z,2.54
2018-03-19T10:30:32.110Z,2.52
2018-03-19T10:33:35.428Z,2.46
2018-03-19T10:36:38.727Z,2.46
2018-03-19T10:39:42.042Z,2.45
2018-03-19T10:42:45.338Z,2.42
2018-03-19T10:45:48.649Z,2.48
2018-03-19T10:48:52.722Z,2.55
2018-03-19T10:51:56.034Z,2.59
2018-03-19T10:54:59.345Z,2.72
2018-03-19T10:58:02.636Z,2.82
2018-03-19T11:01:11.596Z,2.97
2018-03-19T11:04:14.870Z,3.01
2018-03-19T11:07:23.619Z,2.96
2018-03-19T11:10:27.679Z,3.08
2018-03-19T11:13:30.996Z,3.09
2018-03-19T11:16:34.282Z,3.01
2018-03-19T11:19:37.595Z,3.12
2018-03-19T11:22:40.911Z,3.14
2018-03-19T11:25:44.969Z,3.38
2018-03-19T11:28:48.290Z,3.40
2018-03-19T11:31:51.595Z,3.34
2018-03-19T11:34:54.918Z,3.44
2018-03-19T11:37:58.213Z,3.60
2018-03-19T11:41:02.282Z,3.62
2018-03-19T11:44:05.586Z,3.61
2018-03-19T11:47:08.934Z,3.76
2018-03-19T11:50:12.994Z,3.68
2018-03-19T11:53:16.290Z,3.71
2018-03-19T11:56:19.609Z,3.88
2018-03-19T11:59:22.902Z,3.92
2018-03-19T12:02:26.217Z,3.86
2018-03-19T12:05:30.282Z,3.81
2018-03-19T12:08:33.599Z,3.89
2018-03-19T12:11:36.901Z,3.95
2018-03-19T12:14:40.219Z,4.06
2018-03-19T12:17:44.287Z,4.23
2018-03-19T12:20:47.598Z,4.32
2018-03-19T12:23:50.920Z,4.33
2018-03-19T12:26:55.008Z,4.44
2018-03-19T12:29:58.321Z,4.56
2018-03-19T12:33:01.617Z,4.80
2018-03-19T12:36:04.930Z,4.80
2018-03-19T12:39:08.994Z,4.83
2018-03-19T12:42:12.306Z,4.76
2018-03-19T12:45:15.608Z,4.62
2018-03-19T12:48:18.926Z,4.67
2018-03-19T12:51:23.030Z,4.83
2018-03-19T12:54:26.327Z,4.98
2018-03-19T12:57:29.643Z,4.96
2018-03-19T13:00:33.699Z,4.98
2018-03-19T13:03:37.006Z,5.01
2018-03-19T13:06:40.302Z,5.03
2018-03-19T13:09:43.630Z,4.91
2018-03-19T13:12:46.947Z,5.00
2018-03-19T13:15:50.279Z,5.11
2018-03-19T13:18:53.603Z,5.18
2018-03-19T13:21:56.913Z,5.13
2018-03-19T13:25:00.247Z,4.98
2018-03-19T13:28:04.369Z,4.99
2018-03-19T13:31:09.818Z,5.06
2018-03-19T13:34:13.114Z,5.08
2018-03-19T13:37:16.436Z,5.10
2018-03-19T13:40:19.766Z,5.10
2018-03-19T13:43:24.751Z,5.03
2018-03-19T13:46:28.062Z,5.08
2018-03-19T13:49:32.586Z,5.16
2018-03-19T13:52:45.596Z,5.18
2018-03-19T13:55:48.907Z,4.94
2018-03-19T13:58:52.487Z,4.99
2018-03-19T14:01:55.787Z,5.00
2018-03-19T14:05:00.482Z,4.96
2018-03-19T14:08:04.554Z,4.99
2018-03-19T14:11:07.882Z,5.02
2018-03-19T14:14:11.943Z,5.02
2018-03-19T14:17:15.283Z,4.92
2018-03-19T14:20:18.604Z,4.79
2018-03-19T14:23:22.670Z,4.88
2018-03-19T14:26:25.977Z,4.89
2018-03-19T14:29:30.048Z,4.93
2018-03-19T14:32:33.370Z,4.87
2018-03-19T14:35:36.667Z,4.93
2018-03-19T14:38:40.025Z,4.95
2018-03-19T14:41:43.393Z,4.89
2018-03-19T14:44:46.687Z,4.92
2018-03-19T14:47:50.023Z,4.81
2018-03-19T14:50:53.401Z,4.70
2018-03-19T14:53:56.927Z,4.84
2018-03-19T14:57:00.263Z,4.85
2018-03-19T15:00:03.586Z,5.00
2018-03-19T15:03:06.878Z,5.04
2018-03-19T15:06:10.199Z,4.93
2018-03-19T15:09:13.519Z,4.93
2018-03-19T15:12:16.840Z,4.95
2018-03-19T15:15:20.142Z,4.92
2018-03-19T15:18:23.475Z,4.95
2018-03-19T15:21:28.287Z,4.85
2018-03-19T15:24:31.595Z,4.97
2018-03-19T15:27:34.917Z,4.98
2018-03-19T15:30:38.218Z,5.12
2018-03-19T15:33:41.536Z,5.04
2018-03-19T15:36:44.847Z,5.01
2018-03-19T15:39:51.201Z,5.03
2018-03-19T15:42:54.528Z,4.98
2018-03-19T15:45:57.855Z,4.94
2018-03-19T15:49:01.939Z,4.88
2018-03-19T15:52:05.239Z,4.89
2018-03-19T15:55:08.578Z,4.93
2018-03-19T15:58:11.885Z,4.95
2018-03-19T16:01:17.182Z,4.97
2018-03-19T16:04:20.484Z,4.90
2018-03-19T16:07:24.579Z,4.86
2018-03-19T16:10:27.886Z,4.82
2018-03-19T16:13:31.206Z,4.75
2018-03-19T16:23:51.408Z,4.27
2018-03-19T16:26:54.760Z,4.17
2018-03-19T16:29:58.131Z,4.10
2018-03-19T16:33:01.479Z,4.00
2018-03-19T16:36:04.812Z,3.94
2018-03-19T16:39:08.269Z,3.89
2018-03-19T16:42:12.576Z,3.80
2018-03-19T16:45:15.948Z,3.73
2018-03-19T16:48:20.116Z,3.57
2018-03-19T16:51:23.693Z,3.45
2018-03-19T18:05:47.341Z,2.01
2018-03-19T21:15:24.022Z,4.47
2018-03-19T21:18:27.361Z,4.49
2018-03-19T21:21:30.683Z,4.43
2018-03-19T21:24:34.059Z,4.51
2018-03-19T21:27:37.361Z,4.56
2018-03-19T21:30:40.703Z,4.62
2018-03-19T21:33:44.015Z,4.68
2018-03-19T21:36:47.356Z,4.68
2018-03-19T21:39:50.703Z,4.64
2018-03-19T21:42:54.016Z,4.67
2018-03-19T21:45:57.355Z,4.66
2018-03-19T21:49:00.722Z,4.68
2018-03-19T21:52:04.016Z,4.66
2018-03-19T21:55:07.379Z,4.63
2018-03-19T21:58:10.735Z,4.58
2018-03-19T22:01:14.053Z,4.59
2018-03-19T22:04:17.417Z,4.62
2018-03-19T22:07:20.743Z,4.58
2018-03-19T22:10:24.086Z,4.64
2018-03-19T22:13:27.411Z,4.63
2018-03-19T22:16:30.746Z,4.62
2018-03-19T22:19:34.083Z,4.59
2018-03-19T22:22:37.423Z,4.63
2018-03-19T22:25:40.763Z,4.57
2018-03-19T22:28:44.112Z,4.57
2018-03-19T22:31:47.427Z,4.61
2018-03-19T22:34:50.761Z,4.63
2018-03-19T22:37:54.081Z,4.51
2018-03-19T22:40:57.427Z,4.56
2018-03-19T22:44:00.786Z,4.57
2018-03-19T22:47:04.127Z,4.52
2018-03-19T22:50:07.458Z,4.49
2018-03-19T22:53:10.791Z,4.45
2018-03-19T22:56:14.131Z,4.36
2018-03-19T22:59:17.469Z,4.38
2018-03-19T23:02:20.807Z,4.32
2018-03-19T23:05:24.148Z,4.28
2018-03-19T23:08:27.484Z,4.22
2018-03-19T23:11:30.826Z,4.17
2018-03-19T23:14:34.225Z,4.17
2018-03-19T23:17:37.595Z,4.06
2018-03-19T23:20:40.910Z,3.93
2018-03-19T23:23:44.253Z,3.84
2018-03-19T23:26:47.621Z,3.80
2018-03-19T23:29:52.326Z,3.72
2018-03-19T23:32:55.818Z,3.62
2018-03-19T23:35:59.833Z,3.50
2018-03-19T23:39:03.239Z,3.41
2018-03-19T23:42:06.704Z,3.31
2018-03-19T23:45:10.441Z,3.29
2018-03-19T23:52:00.635Z,3.19
2018-03-19T23:55:03.994Z,3.10
2018-03-19T23:58:07.903Z,2.99
